sensor_id;sensor_type;location;lat;lon;timestamp;P1;durP1;ratioP1;P2;durP2;ratioP2
2213;SDS011;1113;42.018;23.986;2024-03-07T00:00:08;26.37;;;20.67;;
2213;SDS011;1113;42.018;23.986;2024-03-07T00:02:44;27.80;;;19.90;;
2213;SDS011;1113;42.018;23.986;2024-03-07T00:05:11;29.33;;;21.60;;
2213;SDS011;1113;42.018;23.986;2024-03-07T00:07:38;31.23;;;22.70;;
2213;SDS011;1113;42.018;23.986;2024-03-07T00:10:05;31.13;;;24.27;;
2213;SDS011;1113;42.018;23.986;2024-03-07T00:12:32;36.80;;;25.60;;
2213;SDS011;1113;42.018;23.986;2024-03-07T00:15:00;31.70;;;23.97;;
2213;SDS011;1113;42.018;23.986;2024-03-07T00:17:27;38.80;;;27.73;;
2213;SDS011;1113;42.018;23.986;2024-03-07T00:19:55;34.60;;;25.93;;
2213;SDS011;1113;42.018;23.986;2024-03-07T00:22:23;35.60;;;24.03;;
2213;SDS011;1113;42.018;23.986;2024-03-07T00:24:51;32.93;;;23.17;;
2213;SDS011;1113;42.018;23.986;2024-03-07T00:27:18;29.57;;;22.03;;
2213;SDS011;1113;42.018;23.986;2024-03-07T00:29:46;32.30;;;22.53;;
2213;SDS011;1113;42.018;23.986;2024-03-07T00:32:18;30.30;;;22.27;;
2213;SDS011;1113;42.018;23.986;2024-03-07T00:34:44;33.83;;;21.97;;
2213;SDS011;1113;42.018;23.986;2024-03-07T00:37:13;37.70;;;24.13;;
2213;SDS011;1113;42.018;23.986;2024-03-07T00:39:40;33.70;;;23.07;;
2213;SDS011;1113;42.018;23.986;2024-03-07T00:42:07;36.20;;;23.90;;
2213;SDS011;1113;42.018;23.986;2024-03-07T00:44:34;35.03;;;24.00;;
2213;SDS011;1113;42.018;23.986;2024-03-07T00:47:02;33.63;;;22.53;;
2213;SDS011;1113;42.018;23.986;2024-03-07T00:49:29;30.87;;;22.13;;
2213;SDS011;1113;42.018;23.986;2024-03-07T00:51:57;28.07;;;20.50;;
2213;SDS011;1113;42.018;23.986;2024-03-07T00:54:25;34.93;;;22.80;;
2213;SDS011;1113;42.018;23.986;2024-03-07T00:56:52;29.23;;;20.53;;
2213;SDS011;1113;42.018;23.986;2024-03-07T00:59:20;25.63;;;18.67;;
2213;SDS011;1113;42.018;23.986;2024-03-07T01:01:47;29.30;;;19.50;;
2213;SDS011;1113;42.018;23.986;2024-03-07T01:04:14;24.60;;;19.20;;
2213;SDS011;1113;42.018;23.986;2024-03-07T01:06:41;26.70;;;18.90;;
2213;SDS011;1113;42.018;23.986;2024-03-07T01:09:08;29.40;;;20.77;;
2213;SDS011;1113;42.018;23.986;2024-03-07T01:11:42;31.80;;;19.33;;
2213;SDS011;1113;42.018;23.986;2024-03-07T01:14:09;26.23;;;18.17;;
2213;SDS011;1113;42.018;23.986;2024-03-07T01:16:36;31.13;;;19.87;;
2213;SDS011;1113;42.018;23.986;2024-03-07T01:19:02;26.07;;;18.30;;
2213;SDS011;1113;42.018;23.986;2024-03-07T01:21:31;28.40;;;19.07;;
2213;SDS011;1113;42.018;23.986;2024-03-07T01:23:58;24.60;;;18.37;;
2213;SDS011;1113;42.018;23.986;2024-03-07T01:26:25;26.70;;;17.50;;
2213;SDS011;1113;42.018;23.986;2024-03-07T01:28:54;24.03;;;16.70;;
2213;SDS011;1113;42.018;23.986;2024-03-07T01:31:22;25.00;;;16.83;;
2213;SDS011;1113;42.018;23.986;2024-03-07T01:33:49;24.33;;;17.27;;
2213;SDS011;1113;42.018;23.986;2024-03-07T01:36:16;26.87;;;18.13;;
2213;SDS011;1113;42.018;23.986;2024-03-07T01:38:43;22.93;;;16.63;;
2213;SDS011;1113;42.018;23.986;2024-03-07T01:41:09;30.40;;;20.03;;
2213;SDS011;1113;42.018;23.986;2024-03-07T01:43:36;27.53;;;19.27;;
2213;SDS011;1113;42.018;23.986;2024-03-07T01:46:05;25.17;;;19.50;;
2213;SDS011;1113;42.018;23.986;2024-03-07T01:48:32;25.67;;;17.00;;
2213;SDS011;1113;42.018;23.986;2024-03-07T01:50:59;23.70;;;16.20;;
2213;SDS011;1113;42.018;23.986;2024-03-07T01:53:26;24.20;;;16.93;;
2213;SDS011;1113;42.018;23.986;2024-03-07T01:55:53;19.10;;;15.03;;
2213;SDS011;1113;42.018;23.986;2024-03-07T01:58:20;26.00;;;17.17;;
2213;SDS011;1113;42.018;23.986;2024-03-07T02:00:48;22.80;;;16.40;;
2213;SDS011;1113;42.018;23.986;2024-03-07T02:03:16;23.47;;;16.40;;
2213;SDS011;1113;42.018;23.986;2024-03-07T02:05:43;29.70;;;21.90;;
2213;SDS011;1113;42.018;23.986;2024-03-07T02:08:10;44.87;;;34.03;;
2213;SDS011;1113;42.018;23.986;2024-03-07T02:10:37;43.93;;;31.30;;
2213;SDS011;1113;42.018;23.986;2024-03-07T02:13:03;46.57;;;37.43;;
2213;SDS011;1113;42.018;23.986;2024-03-07T02:15:31;33.13;;;24.27;;
2213;SDS011;1113;42.018;23.986;2024-03-07T02:17:58;31.43;;;24.27;;
2213;SDS011;1113;42.018;23.986;2024-03-07T02:20:27;30.47;;;22.60;;
2213;SDS011;1113;42.018;23.986;2024-03-07T02:22:56;28.17;;;20.27;;
2213;SDS011;1113;42.018;23.986;2024-03-07T02:25:23;33.00;;;24.57;;
2213;SDS011;1113;42.018;23.986;2024-03-07T02:27:50;28.87;;;20.90;;
2213;SDS011;1113;42.018;23.986;2024-03-07T02:30:16;27.80;;;20.30;;
2213;SDS011;1113;42.018;23.986;2024-03-07T02:32:45;29.07;;;21.00;;
2213;SDS011;1113;42.018;23.986;2024-03-07T02:35:17;24.57;;;18.97;;
2213;SDS011;1113;42.018;23.986;2024-03-07T02:37:44;27.43;;;18.10;;
2213;SDS011;1113;42.018;23.986;2024-03-07T02:40:13;25.17;;;17.70;;
2213;SDS011;1113;42.018;23.986;2024-03-07T02:42:40;28.63;;;18.40;;
2213;SDS011;1113;42.018;23.986;2024-03-07T02:45:08;28.07;;;19.27;;
2213;SDS011;1113;42.018;23.986;2024-03-07T02:47:35;30.10;;;20.73;;
2213;SDS011;1113;42.018;23.986;2024-03-07T02:50:04;30.40;;;19.67;;
2213;SDS011;1113;42.018;23.986;2024-03-07T02:52:31;27.77;;;19.50;;
2213;SDS011;1113;42.018;23.986;2024-03-07T02:54:58;26.80;;;18.30;;
2213;SDS011;1113;42.018;23.986;2024-03-07T02:57:28;30.83;;;19.03;;
2213;SDS011;1113;42.018;23.986;2024-03-07T02:59:55;31.30;;;20.53;;
2213;SDS011;1113;42.018;23.986;2024-03-07T03:02:22;32.10;;;20.20;;
2213;SDS011;1113;42.018;23.986;2024-03-07T03:04:50;34.17;;;20.23;;
2213;SDS011;1113;42.018;23.986;2024-03-07T03:07:17;39.80;;;23.20;;
2213;SDS011;1113;42.018;23.986;2024-03-07T03:09:44;30.00;;;18.87;;
2213;SDS011;1113;42.018;23.986;2024-03-07T03:12:11;26.27;;;17.10;;
2213;SDS011;1113;42.018;23.986;2024-03-07T03:14:39;28.10;;;17.90;;
2213;SDS011;1113;42.018;23.986;2024-03-07T03:17:07;31.13;;;18.67;;
2213;SDS011;1113;42.018;23.986;2024-03-07T03:19:34;29.50;;;18.93;;
2213;SDS011;1113;42.018;23.986;2024-03-07T03:22:01;42.43;;;22.60;;
2213;SDS011;1113;42.018;23.986;2024-03-07T03:24:28;36.17;;;22.60;;
2213;SDS011;1113;42.018;23.986;2024-03-07T03:26:55;33.80;;;23.03;;
2213;SDS011;1113;42.018;23.986;2024-03-07T03:29:22;37.17;;;24.27;;
2213;SDS011;1113;42.018;23.986;2024-03-07T03:31:51;40.50;;;26.37;;
2213;SDS011;1113;42.018;23.986;2024-03-07T03:34:18;37.57;;;26.07;;
2213;SDS011;1113;42.018;23.986;2024-03-07T03:36:45;39.73;;;25.10;;
2213;SDS011;1113;42.018;23.986;2024-03-07T03:39:12;47.63;;;29.70;;
2213;SDS011;1113;42.018;23.986;2024-03-07T03:41:39;42.63;;;28.00;;
2213;SDS011;1113;42.018;23.986;2024-03-07T03:44:05;37.50;;;24.37;;
2213;SDS011;1113;42.018;23.986;2024-03-07T03:46:32;30.53;;;20.50;;
2213;SDS011;1113;42.018;23.986;2024-03-07T03:49:01;30.20;;;18.33;;
2213;SDS011;1113;42.018;23.986;2024-03-07T03:51:29;23.40;;;16.63;;
2213;SDS011;1113;42.018;23.986;2024-03-07T03:53:56;24.20;;;17.30;;
2213;SDS011;1113;42.018;23.986;2024-03-07T03:56:23;26.70;;;18.73;;
2213;SDS011;1113;42.018;23.986;2024-03-07T03:58:51;28.50;;;19.10;;
2213;SDS011;1113;42.018;23.986;2024-03-07T04:01:18;30.33;;;19.50;;
2213;SDS011;1113;42.018;23.986;2024-03-07T04:03:45;31.73;;;21.03;;
2213;SDS011;1113;42.018;23.986;2024-03-07T04:06:14;28.00;;;18.40;;
2213;SDS011;1113;42.018;23.986;2024-03-07T04:08:41;27.07;;;19.47;;
2213;SDS011;1113;42.018;23.986;2024-03-07T04:11:08;27.40;;;18.73;;
2213;SDS011;1113;42.018;23.986;2024-03-07T04:13:35;27.70;;;18.87;;
2213;SDS011;1113;42.018;23.986;2024-03-07T04:16:02;21.20;;;15.50;;
2213;SDS011;1113;42.018;23.986;2024-03-07T04:18:29;23.73;;;15.80;;
2213;SDS011;1113;42.018;23.986;2024-03-07T04:20:57;24.20;;;16.33;;
2213;SDS011;1113;42.018;23.986;2024-03-07T04:23:25;21.23;;;15.00;;
2213;SDS011;1113;42.018;23.986;2024-03-07T04:25:53;25.33;;;16.43;;
2213;SDS011;1113;42.018;23.986;2024-03-07T04:28:21;28.77;;;20.70;;
2213;SDS011;1113;42.018;23.986;2024-03-07T04:30:48;29.83;;;20.80;;
2213;SDS011;1113;42.018;23.986;2024-03-07T04:33:15;39.13;;;32.00;;
2213;SDS011;1113;42.018;23.986;2024-03-07T04:35:42;41.03;;;30.30;;
2213;SDS011;1113;42.018;23.986;2024-03-07T04:38:09;34.10;;;25.60;;
2213;SDS011;1113;42.018;23.986;2024-03-07T04:40:41;28.30;;;20.77;;
2213;SDS011;1113;42.018;23.986;2024-03-07T04:43:08;26.40;;;18.70;;
2213;SDS011;1113;42.018;23.986;2024-03-07T04:45:35;28.77;;;19.77;;
2213;SDS011;1113;42.018;23.986;2024-03-07T04:48:03;29.33;;;20.80;;
2213;SDS011;1113;42.018;23.986;2024-03-07T04:50:30;38.67;;;25.77;;
2213;SDS011;1113;42.018;23.986;2024-03-07T04:52:57;48.77;;;29.93;;
2213;SDS011;1113;42.018;23.986;2024-03-07T04:55:24;56.00;;;30.80;;
2213;SDS011;1113;42.018;23.986;2024-03-07T04:57:52;43.13;;;26.33;;
2213;SDS011;1113;42.018;23.986;2024-03-07T05:00:19;33.23;;;21.37;;
2213;SDS011;1113;42.018;23.986;2024-03-07T05:02:47;37.60;;;22.30;;
2213;SDS011;1113;42.018;23.986;2024-03-07T05:05:14;31.50;;;21.20;;
2213;SDS011;1113;42.018;23.986;2024-03-07T05:07:46;37.57;;;25.10;;
2213;SDS011;1113;42.018;23.986;2024-03-07T05:10:13;36.50;;;24.60;;
2213;SDS011;1113;42.018;23.986;2024-03-07T05:12:39;38.23;;;25.37;;
2213;SDS011;1113;42.018;23.986;2024-03-07T05:15:08;37.17;;;20.87;;
2213;SDS011;1113;42.018;23.986;2024-03-07T05:17:36;32.33;;;21.97;;
2213;SDS011;1113;42.018;23.986;2024-03-07T05:20:04;34.07;;;21.80;;
2213;SDS011;1113;42.018;23.986;2024-03-07T05:22:35;32.80;;;20.80;;
2213;SDS011;1113;42.018;23.986;2024-03-07T05:25:04;35.07;;;21.90;;
2213;SDS011;1113;42.018;23.986;2024-03-07T05:27:31;35.13;;;21.37;;
2213;SDS011;1113;42.018;23.986;2024-03-07T05:29:58;36.87;;;22.63;;
2213;SDS011;1113;42.018;23.986;2024-03-07T05:32:27;32.83;;;21.30;;
2213;SDS011;1113;42.018;23.986;2024-03-07T05:34:54;32.30;;;20.20;;
2213;SDS011;1113;42.018;23.986;2024-03-07T05:37:21;36.13;;;22.17;;
2213;SDS011;1113;42.018;23.986;2024-03-07T05:39:48;34.17;;;21.47;;
2213;SDS011;1113;42.018;23.986;2024-03-07T05:42:15;30.20;;;20.73;;
2213;SDS011;1113;42.018;23.986;2024-03-07T05:44:42;33.30;;;23.50;;
2213;SDS011;1113;42.018;23.986;2024-03-07T05:47:10;33.20;;;22.43;;
2213;SDS011;1113;42.018;23.986;2024-03-07T05:49:40;32.63;;;21.90;;
2213;SDS011;1113;42.018;23.986;2024-03-07T05:52:07;33.10;;;23.53;;
2213;SDS011;1113;42.018;23.986;2024-03-07T05:54:34;34.80;;;24.13;;
2213;SDS011;1113;42.018;23.986;2024-03-07T05:57:01;38.10;;;25.80;;
2213;SDS011;1113;42.018;23.986;2024-03-07T05:59:28;37.47;;;25.63;;
2213;SDS011;1113;42.018;23.986;2024-03-07T06:01:57;38.53;;;25.73;;
2213;SDS011;1113;42.018;23.986;2024-03-07T06:04:24;37.60;;;26.77;;
2213;SDS011;1113;42.018;23.986;2024-03-07T06:06:52;39.50;;;29.63;;
2213;SDS011;1113;42.018;23.986;2024-03-07T06:09:19;46.30;;;30.53;;
2213;SDS011;1113;42.018;23.986;2024-03-07T06:11:47;43.27;;;28.60;;
2213;SDS011;1113;42.018;23.986;2024-03-07T06:14:15;43.83;;;29.73;;
2213;SDS011;1113;42.018;23.986;2024-03-07T06:16:42;50.40;;;35.30;;
2213;SDS011;1113;42.018;23.986;2024-03-07T06:19:09;40.90;;;29.27;;
2213;SDS011;1113;42.018;23.986;2024-03-07T06:21:37;41.43;;;28.17;;
2213;SDS011;1113;42.018;23.986;2024-03-07T06:24:06;47.00;;;30.37;;
2213;SDS011;1113;42.018;23.986;2024-03-07T06:26:36;51.40;;;33.70;;
2213;SDS011;1113;42.018;23.986;2024-03-07T06:29:14;45.00;;;28.60;;
2213;SDS011;1113;42.018;23.986;2024-03-07T06:31:42;43.47;;;28.07;;
2213;SDS011;1113;42.018;23.986;2024-03-07T06:34:11;38.03;;;24.50;;
2213;SDS011;1113;42.018;23.986;2024-03-07T06:36:39;43.17;;;26.73;;
2213;SDS011;1113;42.018;23.986;2024-03-07T06:39:08;36.73;;;22.60;;
2213;SDS011;1113;42.018;23.986;2024-03-07T06:41:36;37.90;;;22.20;;
2213;SDS011;1113;42.018;23.986;2024-03-07T06:44:03;38.30;;;23.90;;
2213;SDS011;1113;42.018;23.986;2024-03-07T06:46:30;39.23;;;24.93;;
2213;SDS011;1113;42.018;23.986;2024-03-07T06:48:59;35.30;;;22.40;;
2213;SDS011;1113;42.018;23.986;2024-03-07T06:51:26;35.23;;;22.80;;
2213;SDS011;1113;42.018;23.986;2024-03-07T06:53:53;33.10;;;19.80;;
2213;SDS011;1113;42.018;23.986;2024-03-07T06:56:22;30.50;;;20.73;;
2213;SDS011;1113;42.018;23.986;2024-03-07T06:58:50;39.10;;;23.83;;
2213;SDS011;1113;42.018;23.986;2024-03-07T07:01:17;41.07;;;25.00;;
2213;SDS011;1113;42.018;23.986;2024-03-07T07:03:45;44.07;;;28.00;;
2213;SDS011;1113;42.018;23.986;2024-03-07T07:06:12;41.40;;;25.47;;
2213;SDS011;1113;42.018;23.986;2024-03-07T07:08:40;35.83;;;22.50;;
2213;SDS011;1113;42.018;23.986;2024-03-07T07:11:07;38.50;;;23.77;;
2213;SDS011;1113;42.018;23.986;2024-03-07T07:13:35;36.40;;;22.10;;
2213;SDS011;1113;42.018;23.986;2024-03-07T07:16:03;35.23;;;23.53;;
2213;SDS011;1113;42.018;23.986;2024-03-07T07:18:30;35.67;;;24.77;;
2213;SDS011;1113;42.018;23.986;2024-03-07T07:20:57;34.60;;;21.47;;
2213;SDS011;1113;42.018;23.986;2024-03-07T07:23:24;34.43;;;20.10;;
2213;SDS011;1113;42.018;23.986;2024-03-07T07:25:51;33.30;;;22.23;;
2213;SDS011;1113;42.018;23.986;2024-03-07T07:28:18;37.23;;;22.03;;
2213;SDS011;1113;42.018;23.986;2024-03-07T07:30:47;41.03;;;24.40;;
2213;SDS011;1113;42.018;23.986;2024-03-07T07:33:14;39.43;;;24.37;;
2213;SDS011;1113;42.018;23.986;2024-03-07T07:35:41;38.83;;;25.87;;
2213;SDS011;1113;42.018;23.986;2024-03-07T07:38:08;38.87;;;24.13;;
2213;SDS011;1113;42.018;23.986;2024-03-07T07:40:36;32.40;;;22.30;;
2213;SDS011;1113;42.018;23.986;2024-03-07T07:43:03;36.43;;;22.53;;
2213;SDS011;1113;42.018;23.986;2024-03-07T07:45:30;37.40;;;23.90;;
2213;SDS011;1113;42.018;23.986;2024-03-07T07:47:59;32.37;;;21.80;;
2213;SDS011;1113;42.018;23.986;2024-03-07T07:50:26;35.23;;;21.97;;
2213;SDS011;1113;42.018;23.986;2024-03-07T07:52:54;34.67;;;22.03;;
2213;SDS011;1113;42.018;23.986;2024-03-07T07:55:21;30.47;;;21.03;;
2213;SDS011;1113;42.018;23.986;2024-03-07T07:57:48;30.30;;;19.10;;
2213;SDS011;1113;42.018;23.986;2024-03-07T08:00:18;30.30;;;20.10;;
2213;SDS011;1113;42.018;23.986;2024-03-07T08:02:51;30.20;;;22.07;;
2213;SDS011;1113;42.018;23.986;2024-03-07T08:05:20;31.47;;;22.17;;
2213;SDS011;1113;42.018;23.986;2024-03-07T08:07:48;26.33;;;18.87;;
2213;SDS011;1113;42.018;23.986;2024-03-07T08:10:16;25.93;;;16.50;;
2213;SDS011;1113;42.018;23.986;2024-03-07T08:12:44;30.13;;;17.83;;
2213;SDS011;1113;42.018;23.986;2024-03-07T08:15:11;32.07;;;19.67;;
2213;SDS011;1113;42.018;23.986;2024-03-07T08:17:39;21.03;;;13.60;;
2213;SDS011;1113;42.018;23.986;2024-03-07T08:20:09;9.73;;;6.60;;
2213;SDS011;1113;42.018;23.986;2024-03-07T08:22:38;6.40;;;3.23;;
2213;SDS011;1113;42.018;23.986;2024-03-07T08:25:07;5.10;;;3.03;;
2213;SDS011;1113;42.018;23.986;2024-03-07T08:27:36;4.40;;;2.37;;
2213;SDS011;1113;42.018;23.986;2024-03-07T08:30:03;3.17;;;1.67;;
2213;SDS011;1113;42.018;23.986;2024-03-07T08:32:31;4.20;;;2.13;;
2213;SDS011;1113;42.018;23.986;2024-03-07T08:34:59;5.27;;;3.50;;
2213;SDS011;1113;42.018;23.986;2024-03-07T08:37:26;6.40;;;2.27;;
2213;SDS011;1113;42.018;23.986;2024-03-07T08:39:55;2.53;;;1.40;;
2213;SDS011;1113;42.018;23.986;2024-03-07T08:42:21;3.13;;;1.90;;
2213;SDS011;1113;42.018;23.986;2024-03-07T08:44:48;3.90;;;1.93;;
2213;SDS011;1113;42.018;23.986;2024-03-07T08:47:14;4.73;;;2.93;;
2213;SDS011;1113;42.018;23.986;2024-03-07T08:49:42;3.50;;;1.40;;
2213;SDS011;1113;42.018;23.986;2024-03-07T08:52:08;2.10;;;1.10;;
2213;SDS011;1113;42.018;23.986;2024-03-07T08:54:35;1.87;;;0.80;;
2213;SDS011;1113;42.018;23.986;2024-03-07T08:57:03;3.40;;;1.37;;
2213;SDS011;1113;42.018;23.986;2024-03-07T08:59:32;1.97;;;1.07;;
2213;SDS011;1113;42.018;23.986;2024-03-07T09:01:59;3.00;;;1.10;;
2213;SDS011;1113;42.018;23.986;2024-03-07T09:04:27;2.30;;;0.90;;
2213;SDS011;1113;42.018;23.986;2024-03-07T09:06:54;3.43;;;1.33;;
2213;SDS011;1113;42.018;23.986;2024-03-07T09:09:21;4.13;;;1.23;;
2213;SDS011;1113;42.018;23.986;2024-03-07T09:11:47;3.53;;;1.47;;
2213;SDS011;1113;42.018;23.986;2024-03-07T09:14:16;2.30;;;0.90;;
2213;SDS011;1113;42.018;23.986;2024-03-07T09:16:43;2.47;;;1.10;;
2213;SDS011;1113;42.018;23.986;2024-03-07T09:19:13;1.77;;;0.90;;
2213;SDS011;1113;42.018;23.986;2024-03-07T09:21:39;1.93;;;0.90;;
2213;SDS011;1113;42.018;23.986;2024-03-07T09:24:07;1.93;;;0.90;;
2213;SDS011;1113;42.018;23.986;2024-03-07T09:26:33;2.23;;;0.90;;
2213;SDS011;1113;42.018;23.986;2024-03-07T09:29:01;1.70;;;0.70;;
2213;SDS011;1113;42.018;23.986;2024-03-07T09:31:33;5.93;;;1.60;;
2213;SDS011;1113;42.018;23.986;2024-03-07T09:34:00;3.87;;;0.90;;
2213;SDS011;1113;42.018;23.986;2024-03-07T09:36:27;1.60;;;0.80;;
2213;SDS011;1113;42.018;23.986;2024-03-07T09:38:55;2.73;;;1.00;;
2213;SDS011;1113;42.018;23.986;2024-03-07T09:41:22;1.87;;;0.80;;
2213;SDS011;1113;42.018;23.986;2024-03-07T09:43:51;1.70;;;0.70;;
2213;SDS011;1113;42.018;23.986;2024-03-07T09:46:19;2.03;;;1.00;;
2213;SDS011;1113;42.018;23.986;2024-03-07T09:48:49;4.23;;;2.20;;
2213;SDS011;1113;42.018;23.986;2024-03-07T09:51:18;1.90;;;1.00;;
2213;SDS011;1113;42.018;23.986;2024-03-07T09:53:46;7.87;;;5.30;;
2213;SDS011;1113;42.018;23.986;2024-03-07T09:56:16;5.10;;;3.60;;
2213;SDS011;1113;42.018;23.986;2024-03-07T09:58:43;6.43;;;3.80;;
2213;SDS011;1113;42.018;23.986;2024-03-07T10:01:12;3.70;;;2.83;;
2213;SDS011;1113;42.018;23.986;2024-03-07T10:03:40;6.70;;;2.60;;
2213;SDS011;1113;42.018;23.986;2024-03-07T10:06:12;3.23;;;2.23;;
2213;SDS011;1113;42.018;23.986;2024-03-07T10:08:40;4.07;;;2.10;;
2213;SDS011;1113;42.018;23.986;2024-03-07T10:11:07;2.33;;;1.50;;
2213;SDS011;1113;42.018;23.986;2024-03-07T10:13:34;2.73;;;1.50;;
2213;SDS011;1113;42.018;23.986;2024-03-07T10:16:02;2.27;;;1.13;;
2213;SDS011;1113;42.018;23.986;2024-03-07T10:18:31;2.20;;;1.37;;
2213;SDS011;1113;42.018;23.986;2024-03-07T10:20:58;1.57;;;0.83;;
2213;SDS011;1113;42.018;23.986;2024-03-07T10:23:27;1.30;;;0.60;;
2213;SDS011;1113;42.018;23.986;2024-03-07T10:25:53;1.30;;;0.63;;
2213;SDS011;1113;42.018;23.986;2024-03-07T10:28:21;1.40;;;0.60;;
2213;SDS011;1113;42.018;23.986;2024-03-07T10:30:49;1.40;;;0.60;;
2213;SDS011;1113;42.018;23.986;2024-03-07T10:33:17;1.50;;;0.60;;
2213;SDS011;1113;42.018;23.986;2024-03-07T10:35:46;2.37;;;0.80;;
2213;SDS011;1113;42.018;23.986;2024-03-07T10:38:14;1.40;;;0.70;;
2213;SDS011;1113;42.018;23.986;2024-03-07T10:40:46;2.20;;;1.10;;
2213;SDS011;1113;42.018;23.986;2024-03-07T10:43:14;4.60;;;2.87;;
2213;SDS011;1113;42.018;23.986;2024-03-07T10:45:44;4.43;;;3.20;;
2213;SDS011;1113;42.018;23.986;2024-03-07T10:48:12;2.27;;;1.40;;
2213;SDS011;1113;42.018;23.986;2024-03-07T10:50:43;12.10;;;7.30;;
2213;SDS011;1113;42.018;23.986;2024-03-07T10:53:17;4.50;;;2.77;;
2213;SDS011;1113;42.018;23.986;2024-03-07T10:55:49;3.93;;;2.87;;
2213;SDS011;1113;42.018;23.986;2024-03-07T10:58:22;12.57;;;8.33;;
2213;SDS011;1113;42.018;23.986;2024-03-07T11:00:51;11.87;;;7.83;;
2213;SDS011;1113;42.018;23.986;2024-03-07T11:03:19;10.40;;;7.93;;
2213;SDS011;1113;42.018;23.986;2024-03-07T11:05:47;14.67;;;9.33;;
2213;SDS011;1113;42.018;23.986;2024-03-07T11:08:14;9.83;;;7.50;;
2213;SDS011;1113;42.018;23.986;2024-03-07T11:10:41;11.27;;;7.93;;
2213;SDS011;1113;42.018;23.986;2024-03-07T11:13:14;9.17;;;5.60;;
2213;SDS011;1113;42.018;23.986;2024-03-07T11:15:42;9.03;;;5.53;;
2213;SDS011;1113;42.018;23.986;2024-03-07T11:18:10;12.87;;;7.50;;
2213;SDS011;1113;42.018;23.986;2024-03-07T11:20:38;11.20;;;6.43;;
2213;SDS011;1113;42.018;23.986;2024-03-07T11:25:53;14.67;;;9.77;;
2213;SDS011;1113;42.018;23.986;2024-03-07T11:28:27;17.47;;;11.23;;
2213;SDS011;1113;42.018;23.986;2024-03-07T11:30:54;14.77;;;10.30;;
2213;SDS011;1113;42.018;23.986;2024-03-07T11:33:21;11.83;;;9.40;;
2213;SDS011;1113;42.018;23.986;2024-03-07T11:35:50;14.80;;;9.43;;
2213;SDS011;1113;42.018;23.986;2024-03-07T11:38:17;11.17;;;7.30;;
2213;SDS011;1113;42.018;23.986;2024-03-07T11:40:50;7.80;;;5.00;;
2213;SDS011;1113;42.018;23.986;2024-03-07T11:43:17;21.00;;;13.40;;
2213;SDS011;1113;42.018;23.986;2024-03-07T11:45:46;12.00;;;10.10;;
2213;SDS011;1113;42.018;23.986;2024-03-07T11:48:17;10.80;;;8.70;;
2213;SDS011;1113;42.018;23.986;2024-03-07T11:50:45;10.67;;;9.10;;
2213;SDS011;1113;42.018;23.986;2024-03-07T11:53:12;6.10;;;4.17;;
2213;SDS011;1113;42.018;23.986;2024-03-07T11:55:39;7.77;;;6.30;;
2213;SDS011;1113;42.018;23.986;2024-03-07T11:58:13;8.00;;;4.97;;
2213;SDS011;1113;42.018;23.986;2024-03-07T12:00:41;9.70;;;7.73;;
2213;SDS011;1113;42.018;23.986;2024-03-07T12:03:12;14.03;;;5.90;;
2213;SDS011;1113;42.018;23.986;2024-03-07T12:05:42;10.27;;;6.90;;
2213;SDS011;1113;42.018;23.986;2024-03-07T12:08:10;9.50;;;5.87;;
2213;SDS011;1113;42.018;23.986;2024-03-07T12:10:37;6.03;;;4.47;;
2213;SDS011;1113;42.018;23.986;2024-03-07T12:13:08;11.17;;;7.20;;
2213;SDS011;1113;42.018;23.986;2024-03-07T12:15:36;11.27;;;6.03;;
2213;SDS011;1113;42.018;23.986;2024-03-07T12:18:04;8.33;;;5.53;;
2213;SDS011;1113;42.018;23.986;2024-03-07T12:20:36;7.00;;;4.90;;
2213;SDS011;1113;42.018;23.986;2024-03-07T12:23:04;8.30;;;5.83;;
2213;SDS011;1113;42.018;23.986;2024-03-07T12:25:34;6.43;;;4.80;;
2213;SDS011;1113;42.018;23.986;2024-03-07T12:28:05;7.47;;;5.00;;
2213;SDS011;1113;42.018;23.986;2024-03-07T12:30:37;11.67;;;4.70;;
2213;SDS011;1113;42.018;23.986;2024-03-07T12:33:12;9.60;;;4.90;;
2213;SDS011;1113;42.018;23.986;2024-03-07T12:35:43;6.47;;;4.80;;
2213;SDS011;1113;42.018;23.986;2024-03-07T12:38:11;6.20;;;4.20;;
2213;SDS011;1113;42.018;23.986;2024-03-07T12:40:40;7.17;;;5.50;;
2213;SDS011;1113;42.018;23.986;2024-03-07T12:43:14;7.77;;;4.30;;
2213;SDS011;1113;42.018;23.986;2024-03-07T12:45:43;7.00;;;4.67;;
2213;SDS011;1113;42.018;23.986;2024-03-07T12:48:10;4.93;;;3.70;;
2213;SDS011;1113;42.018;23.986;2024-03-07T12:50:39;6.90;;;3.57;;
2213;SDS011;1113;42.018;23.986;2024-03-07T12:53:08;7.63;;;3.57;;
2213;SDS011;1113;42.018;23.986;2024-03-07T12:55:37;4.37;;;2.63;;
2213;SDS011;1113;42.018;23.986;2024-03-07T12:58:07;8.80;;;3.33;;
2213;SDS011;1113;42.018;23.986;2024-03-07T13:00:34;4.87;;;3.57;;
2213;SDS011;1113;42.018;23.986;2024-03-07T13:03:01;5.00;;;3.43;;
2213;SDS011;1113;42.018;23.986;2024-03-07T13:05:28;3.97;;;2.50;;
2213;SDS011;1113;42.018;23.986;2024-03-07T13:07:55;3.70;;;2.23;;
2213;SDS011;1113;42.018;23.986;2024-03-07T13:10:24;6.50;;;3.10;;
2213;SDS011;1113;42.018;23.986;2024-03-07T13:12:51;3.47;;;2.20;;
2213;SDS011;1113;42.018;23.986;2024-03-07T13:15:18;4.30;;;3.20;;
2213;SDS011;1113;42.018;23.986;2024-03-07T13:17:47;5.07;;;3.60;;
2213;SDS011;1113;42.018;23.986;2024-03-07T13:20:18;4.60;;;3.03;;
2213;SDS011;1113;42.018;23.986;2024-03-07T13:22:47;5.27;;;3.47;;
2213;SDS011;1113;42.018;23.986;2024-03-07T13:25:16;5.20;;;3.87;;
2213;SDS011;1113;42.018;23.986;2024-03-07T13:27:52;6.87;;;4.47;;
2213;SDS011;1113;42.018;23.986;2024-03-07T13:30:21;7.63;;;5.80;;
2213;SDS011;1113;42.018;23.986;2024-03-07T13:32:53;5.73;;;4.20;;
2213;SDS011;1113;42.018;23.986;2024-03-07T13:35:20;7.93;;;5.07;;
2213;SDS011;1113;42.018;23.986;2024-03-07T13:37:48;9.70;;;5.97;;
2213;SDS011;1113;42.018;23.986;2024-03-07T13:40:15;8.10;;;5.20;;
2213;SDS011;1113;42.018;23.986;2024-03-07T13:42:53;7.60;;;6.40;;
2213;SDS011;1113;42.018;23.986;2024-03-07T13:45:21;11.60;;;8.30;;
2213;SDS011;1113;42.018;23.986;2024-03-07T13:47:49;11.83;;;6.53;;
2213;SDS011;1113;42.018;23.986;2024-03-07T13:50:18;11.80;;;6.73;;
2213;SDS011;1113;42.018;23.986;2024-03-07T13:52:47;9.60;;;6.47;;
2213;SDS011;1113;42.018;23.986;2024-03-07T13:55:28;10.80;;;8.30;;
2213;SDS011;1113;42.018;23.986;2024-03-07T13:57:57;12.90;;;8.43;;
2213;SDS011;1113;42.018;23.986;2024-03-07T14:00:29;12.90;;;8.57;;
2213;SDS011;1113;42.018;23.986;2024-03-07T14:05:57;14.30;;;10.80;;
2213;SDS011;1113;42.018;23.986;2024-03-07T14:11:32;16.80;;;9.80;;
2213;SDS011;1113;42.018;23.986;2024-03-07T14:14:10;14.20;;;10.63;;
2213;SDS011;1113;42.018;23.986;2024-03-07T14:16:50;16.50;;;10.90;;
2213;SDS011;1113;42.018;23.986;2024-03-07T14:19:39;11.57;;;7.87;;
2213;SDS011;1113;42.018;23.986;2024-03-07T14:22:22;14.20;;;9.57;;
2213;SDS011;1113;42.018;23.986;2024-03-07T14:27:58;15.73;;;11.40;;
2213;SDS011;1113;42.018;23.986;2024-03-07T14:30:38;16.73;;;11.87;;
2213;SDS011;1113;42.018;23.986;2024-03-07T14:33:09;18.30;;;11.10;;
2213;SDS011;1113;42.018;23.986;2024-03-07T14:35:39;18.00;;;12.17;;
2213;SDS011;1113;42.018;23.986;2024-03-07T14:38:25;23.70;;;15.20;;
2213;SDS011;1113;42.018;23.986;2024-03-07T14:40:53;23.77;;;15.83;;
2213;SDS011;1113;42.018;23.986;2024-03-07T14:43:21;17.53;;;11.23;;
2213;SDS011;1113;42.018;23.986;2024-03-07T14:45:51;16.97;;;11.53;;
2213;SDS011;1113;42.018;23.986;2024-03-07T14:48:20;15.27;;;11.40;;
2213;SDS011;1113;42.018;23.986;2024-03-07T14:50:47;21.30;;;14.53;;
2213;SDS011;1113;42.018;23.986;2024-03-07T14:53:14;17.30;;;12.60;;
2213;SDS011;1113;42.018;23.986;2024-03-07T14:55:44;24.23;;;15.10;;
2213;SDS011;1113;42.018;23.986;2024-03-07T14:58:12;26.67;;;17.53;;
2213;SDS011;1113;42.018;23.986;2024-03-07T15:00:41;21.33;;;14.80;;